Terminal Aerodrome Forecast
Issued by NWS

Home | Current Version | Previous Version | Text Only | Print | Product List | Glossary On
Versions: 1 2 3 4 5 6 7 8 9 10 11 12 13 14 15 16
000
FTUS44 KTSA 030500
TAFMLC
TAF
KMLC 030520Z 0306/0406 VRB05KT P6SM SCT100
     FM031500 18011KT P6SM BKN250
     FM040000 16005KT P6SM FEW250=

USA.gov is the U.S. government's official web portal to all federal, state and local government web resources and services.